sensor_id;sensor_type;location;lat;lon;timestamp;temperature;humidity
14733;DHT22;7457;50.960;6.830;2022-09-09T00:04:31;17.00;97.20
14733;DHT22;7457;50.960;6.830;2022-09-09T00:09:49;17.00;97.30
14733;DHT22;7457;50.960;6.830;2022-09-09T00:12:27;17.00;97.40
14733;DHT22;7457;50.960;6.830;2022-09-09T00:14:59;17.00;97.30
14733;DHT22;7457;50.960;6.830;2022-09-09T00:20:19;17.00;97.50
14733;DHT22;7457;50.960;6.830;2022-09-09T00:25:39;17.00;97.50
14733;DHT22;7457;50.960;6.830;2022-09-09T00:28:18;17.00;97.50
14733;DHT22;7457;50.960;6.830;2022-09-09T00:30:44;17.00;97.60
14733;DHT22;7457;50.960;6.830;2022-09-09T00:33:16;17.00;97.70
14733;DHT22;7457;50.960;6.830;2022-09-09T00:36:04;16.90;97.80
14733;DHT22;7457;50.960;6.830;2022-09-09T00:38:37;16.90;97.90
14733;DHT22;7457;50.960;6.830;2022-09-09T00:41:21;16.90;98.00
14733;DHT22;7457;50.960;6.830;2022-09-09T00:44:01;16.90;98.10
14733;DHT22;7457;50.960;6.830;2022-09-09T00:46:42;16.90;98.20
14733;DHT22;7457;50.960;6.830;2022-09-09T00:57:35;16.90;98.60
14733;DHT22;7457;50.960;6.830;2022-09-09T01:11:49;16.90;98.70
14733;DHT22;7457;50.960;6.830;2022-09-09T01:22:44;16.80;98.60
14733;DHT22;7457;50.960;6.830;2022-09-09T01:25:56;16.80;98.90
14733;DHT22;7457;50.960;6.830;2022-09-09T01:28:26;16.70;98.50
14733;DHT22;7457;50.960;6.830;2022-09-09T01:30:53;16.70;98.80
14733;DHT22;7457;50.960;6.830;2022-09-09T01:33:20;16.70;98.40
14733;DHT22;7457;50.960;6.830;2022-09-09T01:38:17;16.60;98.40
14733;DHT22;7457;50.960;6.830;2022-09-09T01:40:43;16.60;98.40
14733;DHT22;7457;50.960;6.830;2022-09-09T01:43:09;16.60;98.40
14733;DHT22;7457;50.960;6.830;2022-09-09T01:45:35;16.60;98.40
14733;DHT22;7457;50.960;6.830;2022-09-09T01:48:01;16.60;98.40
14733;DHT22;7457;50.960;6.830;2022-09-09T01:50:28;16.60;98.40
14733;DHT22;7457;50.960;6.830;2022-09-09T01:52:57;16.50;98.30
14733;DHT22;7457;50.960;6.830;2022-09-09T01:55:40;16.50;98.30
14733;DHT22;7457;50.960;6.830;2022-09-09T02:00:51;16.50;98.40
14733;DHT22;7457;50.960;6.830;2022-09-09T02:03:25;16.50;98.40
14733;DHT22;7457;50.960;6.830;2022-09-09T02:08:44;16.50;98.50
14733;DHT22;7457;50.960;6.830;2022-09-09T02:11:18;16.50;98.60
14733;DHT22;7457;50.960;6.830;2022-09-09T02:13:47;16.50;98.70
14733;DHT22;7457;50.960;6.830;2022-09-09T02:21:19;16.60;98.60
14733;DHT22;7457;50.960;6.830;2022-09-09T02:23:47;16.60;98.60
14733;DHT22;7457;50.960;6.830;2022-09-09T02:26:16;16.70;98.60
14733;DHT22;7457;50.960;6.830;2022-09-09T02:28:47;16.70;98.60
14733;DHT22;7457;50.960;6.830;2022-09-09T02:31:16;16.70;98.50
14733;DHT22;7457;50.960;6.830;2022-09-09T02:33:45;16.70;98.50
14733;DHT22;7457;50.960;6.830;2022-09-09T02:36:15;16.70;98.60
14733;DHT22;7457;50.960;6.830;2022-09-09T02:38:46;16.70;98.60
14733;DHT22;7457;50.960;6.830;2022-09-09T02:41:18;16.70;98.60
14733;DHT22;7457;50.960;6.830;2022-09-09T02:43:45;16.70;98.60
14733;DHT22;7457;50.960;6.830;2022-09-09T02:49:09;16.70;98.60
14733;DHT22;7457;50.960;6.830;2022-09-09T02:52:07;16.70;98.60
14733;DHT22;7457;50.960;6.830;2022-09-09T02:54:35;16.70;98.60
14733;DHT22;7457;50.960;6.830;2022-09-09T02:59:34;16.80;98.60
14733;DHT22;7457;50.960;6.830;2022-09-09T03:02:00;16.80;98.60
14733;DHT22;7457;50.960;6.830;2022-09-09T03:04:26;16.80;98.60
14733;DHT22;7457;50.960;6.830;2022-09-09T03:06:52;16.80;98.60
14733;DHT22;7457;50.960;6.830;2022-09-09T03:09:17;16.80;98.60
14733;DHT22;7457;50.960;6.830;2022-09-09T03:11:43;16.90;98.70
14733;DHT22;7457;50.960;6.830;2022-09-09T03:14:08;16.90;98.60
14733;DHT22;7457;50.960;6.830;2022-09-09T03:16:36;16.90;98.70
14733;DHT22;7457;50.960;6.830;2022-09-09T03:19:02;16.90;98.70
14733;DHT22;7457;50.960;6.830;2022-09-09T03:21:28;17.00;98.70
14733;DHT22;7457;50.960;6.830;2022-09-09T03:23:53;16.90;98.70
14733;DHT22;7457;50.960;6.830;2022-09-09T03:26:19;17.00;98.80
14733;DHT22;7457;50.960;6.830;2022-09-09T03:28:45;17.00;98.70
14733;DHT22;7457;50.960;6.830;2022-09-09T03:31:13;17.00;98.70
14733;DHT22;7457;50.960;6.830;2022-09-09T03:33:40;17.10;98.70
14733;DHT22;7457;50.960;6.830;2022-09-09T03:36:06;17.00;98.70
14733;DHT22;7457;50.960;6.830;2022-09-09T03:38:33;17.10;98.70
14733;DHT22;7457;50.960;6.830;2022-09-09T03:40:59;17.10;98.70
14733;DHT22;7457;50.960;6.830;2022-09-09T03:43:27;17.10;98.60
14733;DHT22;7457;50.960;6.830;2022-09-09T03:45:53;17.00;98.60
14733;DHT22;7457;50.960;6.830;2022-09-09T03:48:22;17.10;98.60
14733;DHT22;7457;50.960;6.830;2022-09-09T03:50:50;17.10;98.60
14733;DHT22;7457;50.960;6.830;2022-09-09T03:53:18;17.10;98.60
14733;DHT22;7457;50.960;6.830;2022-09-09T03:55:49;17.10;98.60
14733;DHT22;7457;50.960;6.830;2022-09-09T03:58:16;17.10;98.90
14733;DHT22;7457;50.960;6.830;2022-09-09T04:01:11;17.10;98.60
14733;DHT22;7457;50.960;6.830;2022-09-09T04:03:38;17.10;98.60
14733;DHT22;7457;50.960;6.830;2022-09-09T04:06:06;17.10;98.50
14733;DHT22;7457;50.960;6.830;2022-09-09T04:08:33;17.10;98.50
14733;DHT22;7457;50.960;6.830;2022-09-09T04:10:59;17.20;98.60
14733;DHT22;7457;50.960;6.830;2022-09-09T04:13:27;17.20;98.60
14733;DHT22;7457;50.960;6.830;2022-09-09T04:15:58;17.20;98.50
14733;DHT22;7457;50.960;6.830;2022-09-09T04:18:25;17.20;98.50
14733;DHT22;7457;50.960;6.830;2022-09-09T04:20:52;17.20;98.40
14733;DHT22;7457;50.960;6.830;2022-09-09T04:23:18;17.20;98.40
14733;DHT22;7457;50.960;6.830;2022-09-09T04:25:46;17.20;98.40
14733;DHT22;7457;50.960;6.830;2022-09-09T04:28:13;17.30;98.30
14733;DHT22;7457;50.960;6.830;2022-09-09T04:30:39;17.30;98.30
14733;DHT22;7457;50.960;6.830;2022-09-09T04:33:06;17.30;98.30
14733;DHT22;7457;50.960;6.830;2022-09-09T04:35:32;17.30;98.30
14733;DHT22;7457;50.960;6.830;2022-09-09T04:38:01;17.30;98.20
14733;DHT22;7457;50.960;6.830;2022-09-09T04:40:30;17.30;98.20
14733;DHT22;7457;50.960;6.830;2022-09-09T04:43:00;17.30;98.10
14733;DHT22;7457;50.960;6.830;2022-09-09T04:45:26;17.30;98.10
14733;DHT22;7457;50.960;6.830;2022-09-09T04:47:52;17.30;98.10
14733;DHT22;7457;50.960;6.830;2022-09-09T04:50:18;17.30;98.10
14733;DHT22;7457;50.960;6.830;2022-09-09T04:52:44;17.30;98.10
14733;DHT22;7457;50.960;6.830;2022-09-09T04:55:10;17.30;98.10
14733;DHT22;7457;50.960;6.830;2022-09-09T04:57:38;17.30;98.10
14733;DHT22;7457;50.960;6.830;2022-09-09T05:00:04;17.30;98.00
14733;DHT22;7457;50.960;6.830;2022-09-09T05:02:30;17.30;98.00
14733;DHT22;7457;50.960;6.830;2022-09-09T05:04:57;17.40;98.00
14733;DHT22;7457;50.960;6.830;2022-09-09T05:07:26;17.40;98.10
14733;DHT22;7457;50.960;6.830;2022-09-09T05:09:53;17.40;98.00
14733;DHT22;7457;50.960;6.830;2022-09-09T05:12:19;17.40;98.00
14733;DHT22;7457;50.960;6.830;2022-09-09T05:14:44;17.40;98.00
14733;DHT22;7457;50.960;6.830;2022-09-09T05:17:10;17.40;97.90
14733;DHT22;7457;50.960;6.830;2022-09-09T05:19:36;17.40;97.90
14733;DHT22;7457;50.960;6.830;2022-09-09T05:22:02;17.40;97.80
14733;DHT22;7457;50.960;6.830;2022-09-09T05:24:27;17.40;97.80
14733;DHT22;7457;50.960;6.830;2022-09-09T05:26:53;17.40;97.70
14733;DHT22;7457;50.960;6.830;2022-09-09T05:29:19;17.40;98.00
14733;DHT22;7457;50.960;6.830;2022-09-09T05:31:45;17.50;97.70
14733;DHT22;7457;50.960;6.830;2022-09-09T05:34:12;17.50;97.70
14733;DHT22;7457;50.960;6.830;2022-09-09T05:36:38;17.50;97.70
14733;DHT22;7457;50.960;6.830;2022-09-09T05:39:03;17.50;97.70
14733;DHT22;7457;50.960;6.830;2022-09-09T05:41:29;17.50;97.50
14733;DHT22;7457;50.960;6.830;2022-09-09T05:43:55;17.50;97.50
14733;DHT22;7457;50.960;6.830;2022-09-09T05:46:22;17.60;97.50
14733;DHT22;7457;50.960;6.830;2022-09-09T05:48:50;17.60;97.40
14733;DHT22;7457;50.960;6.830;2022-09-09T05:51:19;17.60;97.40
14733;DHT22;7457;50.960;6.830;2022-09-09T05:53:46;17.60;97.30
14733;DHT22;7457;50.960;6.830;2022-09-09T05:56:22;17.60;97.10
14733;DHT22;7457;50.960;6.830;2022-09-09T05:58:51;17.70;97.10
14733;DHT22;7457;50.960;6.830;2022-09-09T06:01:38;17.70;97.00
14733;DHT22;7457;50.960;6.830;2022-09-09T06:04:06;17.70;96.90
14733;DHT22;7457;50.960;6.830;2022-09-09T06:06:34;17.80;96.90
14733;DHT22;7457;50.960;6.830;2022-09-09T06:09:03;17.80;96.80
14733;DHT22;7457;50.960;6.830;2022-09-09T06:11:32;17.80;96.60
14733;DHT22;7457;50.960;6.830;2022-09-09T06:13:59;17.80;96.50
14733;DHT22;7457;50.960;6.830;2022-09-09T06:16:26;17.80;96.50
14733;DHT22;7457;50.960;6.830;2022-09-09T06:18:56;17.80;96.40
14733;DHT22;7457;50.960;6.830;2022-09-09T06:21:30;17.80;96.30
14733;DHT22;7457;50.960;6.830;2022-09-09T06:23:56;17.80;96.20
14733;DHT22;7457;50.960;6.830;2022-09-09T06:26:40;17.80;96.20
14733;DHT22;7457;50.960;6.830;2022-09-09T06:29:07;17.90;96.20
14733;DHT22;7457;50.960;6.830;2022-09-09T06:31:34;17.90;96.00
14733;DHT22;7457;50.960;6.830;2022-09-09T06:34:04;17.90;96.00
14733;DHT22;7457;50.960;6.830;2022-09-09T06:36:36;17.90;95.90
14733;DHT22;7457;50.960;6.830;2022-09-09T06:39:03;18.00;95.90
14733;DHT22;7457;50.960;6.830;2022-09-09T06:41:30;18.20;95.90
14733;DHT22;7457;50.960;6.830;2022-09-09T06:43:55;18.30;95.60
14733;DHT22;7457;50.960;6.830;2022-09-09T06:46:23;18.40;95.50
14733;DHT22;7457;50.960;6.830;2022-09-09T06:48:49;18.50;95.50
14733;DHT22;7457;50.960;6.830;2022-09-09T06:53:43;18.70;95.10
14733;DHT22;7457;50.960;6.830;2022-09-09T06:58:41;18.90;94.70
14733;DHT22;7457;50.960;6.830;2022-09-09T07:01:12;19.00;94.60
14733;DHT22;7457;50.960;6.830;2022-09-09T07:03:38;19.00;94.60
14733;DHT22;7457;50.960;6.830;2022-09-09T07:06:05;19.10;94.40
14733;DHT22;7457;50.960;6.830;2022-09-09T07:08:31;19.10;94.20
14733;DHT22;7457;50.960;6.830;2022-09-09T07:11:05;19.20;94.20
14733;DHT22;7457;50.960;6.830;2022-09-09T07:13:32;19.30;94.00
14733;DHT22;7457;50.960;6.830;2022-09-09T07:16:11;19.30;93.80
14733;DHT22;7457;50.960;6.830;2022-09-09T07:18:38;19.40;93.80
14733;DHT22;7457;50.960;6.830;2022-09-09T07:21:04;19.50;93.50
14733;DHT22;7457;50.960;6.830;2022-09-09T07:23:31;19.60;93.40
14733;DHT22;7457;50.960;6.830;2022-09-09T07:25:58;19.70;93.10
14733;DHT22;7457;50.960;6.830;2022-09-09T07:28:25;19.80;93.00
14733;DHT22;7457;50.960;6.830;2022-09-09T07:31:00;19.80;92.80
14733;DHT22;7457;50.960;6.830;2022-09-09T07:33:28;20.00;92.30
14733;DHT22;7457;50.960;6.830;2022-09-09T07:36:05;20.10;92.00
14733;DHT22;7457;50.960;6.830;2022-09-09T07:38:37;20.20;91.60
14733;DHT22;7457;50.960;6.830;2022-09-09T07:41:07;20.20;91.30
14733;DHT22;7457;50.960;6.830;2022-09-09T07:43:38;20.30;91.30
14733;DHT22;7457;50.960;6.830;2022-09-09T07:46:05;20.30;91.20
14733;DHT22;7457;50.960;6.830;2022-09-09T07:48:31;20.20;90.70
14733;DHT22;7457;50.960;6.830;2022-09-09T07:51:10;20.30;90.80
14733;DHT22;7457;50.960;6.830;2022-09-09T07:53:37;20.20;90.90
14733;DHT22;7457;50.960;6.830;2022-09-09T07:56:09;20.20;91.00
14733;DHT22;7457;50.960;6.830;2022-09-09T07:58:37;20.40;90.90
14733;DHT22;7457;50.960;6.830;2022-09-09T08:01:12;20.40;90.40
14733;DHT22;7457;50.960;6.830;2022-09-09T08:03:38;20.50;90.40
14733;DHT22;7457;50.960;6.830;2022-09-09T08:06:06;20.40;90.70
14733;DHT22;7457;50.960;6.830;2022-09-09T08:08:33;20.40;90.30
14733;DHT22;7457;50.960;6.830;2022-09-09T08:11:08;20.40;90.40
14733;DHT22;7457;50.960;6.830;2022-09-09T08:13:35;20.20;90.20
14733;DHT22;7457;50.960;6.830;2022-09-09T08:16:25;20.10;90.20
14733;DHT22;7457;50.960;6.830;2022-09-09T08:18:54;20.00;90.30
14733;DHT22;7457;50.960;6.830;2022-09-09T08:21:27;19.90;90.20
14733;DHT22;7457;50.960;6.830;2022-09-09T08:23:54;19.80;90.20
14733;DHT22;7457;50.960;6.830;2022-09-09T08:28:51;19.80;90.10
14733;DHT22;7457;50.960;6.830;2022-09-09T08:31:38;19.80;89.50
14733;DHT22;7457;50.960;6.830;2022-09-09T08:34:05;20.00;90.00
14733;DHT22;7457;50.960;6.830;2022-09-09T08:36:35;20.20;90.00
14733;DHT22;7457;50.960;6.830;2022-09-09T08:39:03;20.30;89.70
14733;DHT22;7457;50.960;6.830;2022-09-09T08:53:04;20.60;86.90
14733;DHT22;7457;50.960;6.830;2022-09-09T08:58:09;20.70;86.00
14733;DHT22;7457;50.960;6.830;2022-09-09T09:00:44;20.90;86.20
14733;DHT22;7457;50.960;6.830;2022-09-09T09:11:22;21.60;83.30
14733;DHT22;7457;50.960;6.830;2022-09-09T09:14:09;21.50;82.50
14733;DHT22;7457;50.960;6.830;2022-09-09T09:16:57;21.40;82.30
14733;DHT22;7457;50.960;6.830;2022-09-09T09:19:23;21.30;83.30
14733;DHT22;7457;50.960;6.830;2022-09-09T09:24:52;21.10;82.80
14733;DHT22;7457;50.960;6.830;2022-09-09T09:27:31;21.10;83.20
14733;DHT22;7457;50.960;6.830;2022-09-09T09:29:59;21.00;83.30
14733;DHT22;7457;50.960;6.830;2022-09-09T09:32:26;20.90;83.50
14733;DHT22;7457;50.960;6.830;2022-09-09T09:34:56;20.80;83.50
14733;DHT22;7457;50.960;6.830;2022-09-09T09:37:33;20.70;83.60
14733;DHT22;7457;50.960;6.830;2022-09-09T09:42:35;20.50;83.60
14733;DHT22;7457;50.960;6.830;2022-09-09T09:48:08;20.50;84.40
14733;DHT22;7457;50.960;6.830;2022-09-09T09:50:34;20.60;84.70
14733;DHT22;7457;50.960;6.830;2022-09-09T09:53:04;20.70;84.60
14733;DHT22;7457;50.960;6.830;2022-09-09T09:55:32;21.00;84.90
14733;DHT22;7457;50.960;6.830;2022-09-09T09:58:04;21.20;84.10
14733;DHT22;7457;50.960;6.830;2022-09-09T10:00:29;21.40;83.50
14733;DHT22;7457;50.960;6.830;2022-09-09T10:02:55;21.40;83.50
14733;DHT22;7457;50.960;6.830;2022-09-09T10:05:32;21.50;82.30
14733;DHT22;7457;50.960;6.830;2022-09-09T10:13:30;21.60;80.40
14733;DHT22;7457;50.960;6.830;2022-09-09T10:19:16;21.70;80.60
14733;DHT22;7457;50.960;6.830;2022-09-09T10:29:52;21.50;81.10
14733;DHT22;7457;50.960;6.830;2022-09-09T10:35:31;21.40;81.50
14733;DHT22;7457;50.960;6.830;2022-09-09T10:38:21;21.40;81.10
14733;DHT22;7457;50.960;6.830;2022-09-09T10:51:28;22.50;80.20
14733;DHT22;7457;50.960;6.830;2022-09-09T10:54:24;22.50;79.10
14733;DHT22;7457;50.960;6.830;2022-09-09T10:56:59;22.70;79.00
14733;DHT22;7457;50.960;6.830;2022-09-09T10:59:39;22.70;78.70
14733;DHT22;7457;50.960;6.830;2022-09-09T11:02:30;22.70;78.40
14733;DHT22;7457;50.960;6.830;2022-09-09T11:05:03;22.50;78.00
14733;DHT22;7457;50.960;6.830;2022-09-09T11:07:47;22.40;78.60
14733;DHT22;7457;50.960;6.830;2022-09-09T11:13:09;22.00;78.00
14733;DHT22;7457;50.960;6.830;2022-09-09T11:15:44;22.00;78.80
14733;DHT22;7457;50.960;6.830;2022-09-09T11:18:15;22.20;79.50
14733;DHT22;7457;50.960;6.830;2022-09-09T11:20:45;22.30;77.50
14733;DHT22;7457;50.960;6.830;2022-09-09T11:23:22;22.20;77.10
14733;DHT22;7457;50.960;6.830;2022-09-09T11:25:58;22.10;77.10
14733;DHT22;7457;50.960;6.830;2022-09-09T11:28:46;22.10;77.60
14733;DHT22;7457;50.960;6.830;2022-09-09T11:31:36;22.00;76.90
14733;DHT22;7457;50.960;6.830;2022-09-09T11:36:55;21.80;76.70
14733;DHT22;7457;50.960;6.830;2022-09-09T11:41:50;22.00;76.90
14733;DHT22;7457;50.960;6.830;2022-09-09T11:44:34;22.10;77.00
14733;DHT22;7457;50.960;6.830;2022-09-09T11:46:59;22.10;75.10
14733;DHT22;7457;50.960;6.830;2022-09-09T11:49:42;22.00;75.40
14733;DHT22;7457;50.960;6.830;2022-09-09T11:52:36;22.00;75.50
14733;DHT22;7457;50.960;6.830;2022-09-09T11:55:24;22.20;77.10
14733;DHT22;7457;50.960;6.830;2022-09-09T11:58:01;22.70;77.60
14733;DHT22;7457;50.960;6.830;2022-09-09T12:00:33;23.10;75.00
14733;DHT22;7457;50.960;6.830;2022-09-09T12:02:59;23.00;73.80
14733;DHT22;7457;50.960;6.830;2022-09-09T12:05:37;22.80;73.70
14733;DHT22;7457;50.960;6.830;2022-09-09T12:08:05;22.50;74.30
14733;DHT22;7457;50.960;6.830;2022-09-09T12:10:37;22.30;74.90
14733;DHT22;7457;50.960;6.830;2022-09-09T12:13:24;22.00;75.00
14733;DHT22;7457;50.960;6.830;2022-09-09T12:15:54;21.70;75.40
14733;DHT22;7457;50.960;6.830;2022-09-09T12:18:24;21.70;76.50
14733;DHT22;7457;50.960;6.830;2022-09-09T12:21:00;21.80;77.00
14733;DHT22;7457;50.960;6.830;2022-09-09T12:23:59;21.80;77.20
14733;DHT22;7457;50.960;6.830;2022-09-09T12:26:52;21.80;76.70
14733;DHT22;7457;50.960;6.830;2022-09-09T12:32:22;21.80;76.60
14733;DHT22;7457;50.960;6.830;2022-09-09T12:35:25;21.60;76.50
14733;DHT22;7457;50.960;6.830;2022-09-09T12:37:48;21.40;77.30
14733;DHT22;7457;50.960;6.830;2022-09-09T12:42:49;20.80;80.00
14733;DHT22;7457;50.960;6.830;2022-09-09T12:45:26;20.40;80.80
14733;DHT22;7457;50.960;6.830;2022-09-09T12:48:08;20.10;84.00
14733;DHT22;7457;50.960;6.830;2022-09-09T12:50:42;19.80;86.30
14733;DHT22;7457;50.960;6.830;2022-09-09T12:53:31;19.80;89.40
14733;DHT22;7457;50.960;6.830;2022-09-09T12:56:06;20.00;90.70
14733;DHT22;7457;50.960;6.830;2022-09-09T12:58:34;20.30;91.00
14733;DHT22;7457;50.960;6.830;2022-09-09T13:01:03;20.60;91.10
14733;DHT22;7457;50.960;6.830;2022-09-09T13:03:33;20.90;91.40
14733;DHT22;7457;50.960;6.830;2022-09-09T13:06:11;21.10;91.30
14733;DHT22;7457;50.960;6.830;2022-09-09T13:08:37;21.30;91.30
14733;DHT22;7457;50.960;6.830;2022-09-09T13:11:07;21.40;91.10
14733;DHT22;7457;50.960;6.830;2022-09-09T13:13:41;21.40;90.80
14733;DHT22;7457;50.960;6.830;2022-09-09T13:16:22;21.30;90.60
14733;DHT22;7457;50.960;6.830;2022-09-09T13:18:49;21.20;90.50
14733;DHT22;7457;50.960;6.830;2022-09-09T13:21:15;21.00;90.50
14733;DHT22;7457;50.960;6.830;2022-09-09T13:23:40;20.90;90.60
14733;DHT22;7457;50.960;6.830;2022-09-09T13:26:22;20.80;90.80
14733;DHT22;7457;50.960;6.830;2022-09-09T13:28:48;20.70;91.00
14733;DHT22;7457;50.960;6.830;2022-09-09T13:31:32;20.70;91.10
14733;DHT22;7457;50.960;6.830;2022-09-09T13:33:59;20.70;91.30
14733;DHT22;7457;50.960;6.830;2022-09-09T13:36:33;20.70;91.10
14733;DHT22;7457;50.960;6.830;2022-09-09T13:39:02;20.70;91.20
14733;DHT22;7457;50.960;6.830;2022-09-09T13:41:35;20.70;91.00
14733;DHT22;7457;50.960;6.830;2022-09-09T13:44:03;20.70;90.50
14733;DHT22;7457;50.960;6.830;2022-09-09T13:46:41;20.80;90.20
14733;DHT22;7457;50.960;6.830;2022-09-09T13:51:00;20.90;90.10
14733;DHT22;7457;50.960;6.830;2022-09-09T13:55:50;21.10;89.40
14733;DHT22;7457;50.960;6.830;2022-09-09T13:58:17;21.00;88.60
14733;DHT22;7457;50.960;6.830;2022-09-09T14:00:45;21.00;88.60
14733;DHT22;7457;50.960;6.830;2022-09-09T14:03:11;20.80;88.60
14733;DHT22;7457;50.960;6.830;2022-09-09T14:05:37;20.70;88.60
14733;DHT22;7457;50.960;6.830;2022-09-09T14:08:20;20.60;88.80
14733;DHT22;7457;50.960;6.830;2022-09-09T14:10:47;20.50;89.10
14733;DHT22;7457;50.960;6.830;2022-09-09T14:13:12;20.40;89.40
14733;DHT22;7457;50.960;6.830;2022-09-09T14:15:38;20.30;90.00
14733;DHT22;7457;50.960;6.830;2022-09-09T14:18:04;20.10;90.30
14733;DHT22;7457;50.960;6.830;2022-09-09T14:20:29;19.80;90.80
14733;DHT22;7457;50.960;6.830;2022-09-09T14:22:55;19.40;91.30
14733;DHT22;7457;50.960;6.830;2022-09-09T14:25:23;19.00;91.90
14733;DHT22;7457;50.960;6.830;2022-09-09T14:27:48;18.50;92.40
14733;DHT22;7457;50.960;6.830;2022-09-09T14:30:16;18.20;93.00
14733;DHT22;7457;50.960;6.830;2022-09-09T14:32:42;17.90;93.70
14733;DHT22;7457;50.960;6.830;2022-09-09T14:35:08;17.70;94.40
14733;DHT22;7457;50.960;6.830;2022-09-09T14:37:34;17.50;94.80
14733;DHT22;7457;50.960;6.830;2022-09-09T14:40:00;17.50;95.20
14733;DHT22;7457;50.960;6.830;2022-09-09T14:42:26;17.40;95.70
14733;DHT22;7457;50.960;6.830;2022-09-09T14:44:52;17.40;96.00
14733;DHT22;7457;50.960;6.830;2022-09-09T14:47:17;17.40;96.50
14733;DHT22;7457;50.960;6.830;2022-09-09T14:49:43;17.50;96.50
14733;DHT22;7457;50.960;6.830;2022-09-09T14:52:09;17.60;96.80
14733;DHT22;7457;50.960;6.830;2022-09-09T14:54:35;17.70;97.00
14733;DHT22;7457;50.960;6.830;2022-09-09T14:57:01;17.80;97.20
14733;DHT22;7457;50.960;6.830;2022-09-09T14:59:26;18.00;97.30
14733;DHT22;7457;50.960;6.830;2022-09-09T15:01:52;18.10;97.40
14733;DHT22;7457;50.960;6.830;2022-09-09T15:04:18;18.30;97.30
14733;DHT22;7457;50.960;6.830;2022-09-09T15:06:44;18.40;97.30
14733;DHT22;7457;50.960;6.830;2022-09-09T15:09:13;18.50;97.30
14733;DHT22;7457;50.960;6.830;2022-09-09T15:11:39;18.60;97.20
14733;DHT22;7457;50.960;6.830;2022-09-09T15:14:09;18.70;97.30
14733;DHT22;7457;50.960;6.830;2022-09-09T15:16:35;18.70;97.30
14733;DHT22;7457;50.960;6.830;2022-09-09T15:19:02;18.80;97.40
14733;DHT22;7457;50.960;6.830;2022-09-09T15:21:30;18.80;97.40
14733;DHT22;7457;50.960;6.830;2022-09-09T15:23:57;18.80;97.20
14733;DHT22;7457;50.960;6.830;2022-09-09T15:26:23;18.80;97.30
14733;DHT22;7457;50.960;6.830;2022-09-09T15:28:49;18.80;97.30
14733;DHT22;7457;50.960;6.830;2022-09-09T15:31:23;18.80;97.40
14733;DHT22;7457;50.960;6.830;2022-09-09T15:33:57;18.90;97.60
14733;DHT22;7457;50.960;6.830;2022-09-09T15:36:40;18.90;97.60
14733;DHT22;7457;50.960;6.830;2022-09-09T15:39:08;19.00;97.60
14733;DHT22;7457;50.960;6.830;2022-09-09T15:41:35;19.00;97.50
14733;DHT22;7457;50.960;6.830;2022-09-09T15:44:01;19.10;97.60
14733;DHT22;7457;50.960;6.830;2022-09-09T15:48:55;19.20;97.60
14733;DHT22;7457;50.960;6.830;2022-09-09T15:51:21;19.30;97.60
14733;DHT22;7457;50.960;6.830;2022-09-09T15:53:49;19.20;97.50
14733;DHT22;7457;50.960;6.830;2022-09-09T15:56:18;19.30;97.30
14733;DHT22;7457;50.960;6.830;2022-09-09T15:58:44;19.30;97.00
14733;DHT22;7457;50.960;6.830;2022-09-09T16:01:10;19.20;96.80
14733;DHT22;7457;50.960;6.830;2022-09-09T16:03:39;19.20;96.70
14733;DHT22;7457;50.960;6.830;2022-09-09T16:06:06;19.20;96.70
14733;DHT22;7457;50.960;6.830;2022-09-09T16:08:36;19.10;96.60
14733;DHT22;7457;50.960;6.830;2022-09-09T16:11:17;19.00;96.50
14733;DHT22;7457;50.960;6.830;2022-09-09T16:13:45;19.00;96.50
14733;DHT22;7457;50.960;6.830;2022-09-09T16:16:12;18.80;96.40
14733;DHT22;7457;50.960;6.830;2022-09-09T16:18:43;18.70;96.60
14733;DHT22;7457;50.960;6.830;2022-09-09T16:21:17;18.60;96.60
14733;DHT22;7457;50.960;6.830;2022-09-09T16:23:43;18.60;96.70
14733;DHT22;7457;50.960;6.830;2022-09-09T16:26:11;18.50;96.80
14733;DHT22;7457;50.960;6.830;2022-09-09T16:28:37;18.50;96.90
14733;DHT22;7457;50.960;6.830;2022-09-09T16:31:05;18.50;96.90
14733;DHT22;7457;50.960;6.830;2022-09-09T16:33:31;18.40;96.80
14733;DHT22;7457;50.960;6.830;2022-09-09T16:35:57;18.40;96.90
14733;DHT22;7457;50.960;6.830;2022-09-09T16:38:22;18.40;97.00
14733;DHT22;7457;50.960;6.830;2022-09-09T16:40:48;18.40;97.00
14733;DHT22;7457;50.960;6.830;2022-09-09T16:43:15;18.40;97.10
14733;DHT22;7457;50.960;6.830;2022-09-09T16:45:44;18.40;97.20
14733;DHT22;7457;50.960;6.830;2022-09-09T16:48:10;18.40;97.20
14733;DHT22;7457;50.960;6.830;2022-09-09T16:50:36;18.50;97.30
14733;DHT22;7457;50.960;6.830;2022-09-09T16:53:02;18.40;97.20
14733;DHT22;7457;50.960;6.830;2022-09-09T16:55:39;18.50;97.20
14733;DHT22;7457;50.960;6.830;2022-09-09T16:58:05;18.40;97.20
14733;DHT22;7457;50.960;6.830;2022-09-09T17:00:30;18.40;97.10
14733;DHT22;7457;50.960;6.830;2022-09-09T17:02:56;18.40;97.10
14733;DHT22;7457;50.960;6.830;2022-09-09T17:05:21;18.40;97.20
14733;DHT22;7457;50.960;6.830;2022-09-09T17:07:48;18.40;97.20
14733;DHT22;7457;50.960;6.830;2022-09-09T17:10:14;18.40;97.30
14733;DHT22;7457;50.960;6.830;2022-09-09T17:12:39;18.40;97.30
14733;DHT22;7457;50.960;6.830;2022-09-09T17:15:07;18.40;97.40
14733;DHT22;7457;50.960;6.830;2022-09-09T17:17:32;18.40;97.40
14733;DHT22;7457;50.960;6.830;2022-09-09T17:19:58;18.40;97.50
14733;DHT22;7457;50.960;6.830;2022-09-09T17:22:24;18.30;97.50
14733;DHT22;7457;50.960;6.830;2022-09-09T17:24:51;18.30;97.60
14733;DHT22;7457;50.960;6.830;2022-09-09T17:27:17;18.30;97.60
14733;DHT22;7457;50.960;6.830;2022-09-09T17:29:43;18.30;97.60
14733;DHT22;7457;50.960;6.830;2022-09-09T17:32:08;18.30;97.60
14733;DHT22;7457;50.960;6.830;2022-09-09T17:34:34;18.30;97.60
14733;DHT22;7457;50.960;6.830;2022-09-09T17:37:00;18.20;97.50
14733;DHT22;7457;50.960;6.830;2022-09-09T17:39:26;18.20;97.40
14733;DHT22;7457;50.960;6.830;2022-09-09T17:41:52;18.20;97.30
14733;DHT22;7457;50.960;6.830;2022-09-09T17:44:18;18.20;97.30
14733;DHT22;7457;50.960;6.830;2022-09-09T17:46:45;18.20;97.60
14733;DHT22;7457;50.960;6.830;2022-09-09T17:49:13;18.10;97.30
14733;DHT22;7457;50.960;6.830;2022-09-09T17:51:41;18.10;97.30
14733;DHT22;7457;50.960;6.830;2022-09-09T17:54:12;18.10;97.30
14733;DHT22;7457;50.960;6.830;2022-09-09T17:56:39;18.00;97.40
14733;DHT22;7457;50.960;6.830;2022-09-09T17:59:09;18.00;97.50
14733;DHT22;7457;50.960;6.830;2022-09-09T18:01:37;18.00;97.60
14733;DHT22;7457;50.960;6.830;2022-09-09T18:04:05;17.90;97.60
14733;DHT22;7457;50.960;6.830;2022-09-09T18:09:08;18.00;97.90
14733;DHT22;7457;50.960;6.830;2022-09-09T18:11:36;17.90;97.90
14733;DHT22;7457;50.960;6.830;2022-09-09T18:14:07;17.90;97.90
14733;DHT22;7457;50.960;6.830;2022-09-09T18:16:36;17.90;97.90
14733;DHT22;7457;50.960;6.830;2022-09-09T18:19:03;17.90;98.00
14733;DHT22;7457;50.960;6.830;2022-09-09T18:21:31;17.80;98.10
14733;DHT22;7457;50.960;6.830;2022-09-09T18:24:03;17.80;98.20
14733;DHT22;7457;50.960;6.830;2022-09-09T18:26:30;17.70;98.40
14733;DHT22;7457;50.960;6.830;2022-09-09T18:28:59;17.60;98.60
14733;DHT22;7457;50.960;6.830;2022-09-09T18:31:27;17.60;98.70
14733;DHT22;7457;50.960;6.830;2022-09-09T18:33:54;17.50;98.90